This is the latest recevied weather packets stored in our database for station/object LZ2SMX-2. If no packets are shown the sender has not sent any weather packets the latest 10 day(s).
| Time | Temp. | Humidity | Pressure | Rain* | Wind** | Luminosity | Snow |
|---|---|---|---|---|---|---|---|
| 1777817590 | 10.56° C | 53% | 993 hPa | 0 mm | - | - | - |
| 1777816389 | 10.56° C | 55% | 993 hPa | 0 mm | - | - | - |
| 1777815190 | 10.56° C | 55% | 992 hPa | 0 mm | - | - | - |
| 1777813990 | 11.67° C | 57% | 993 hPa | 0 mm | - | - | - |
| 1777812791 | 11.67° C | 60% | 993 hPa | 0 mm | - | - | - |
| 1777811591 | 11.67° C | 59% | 993 hPa | 0 mm | - | - | - |
| 1777810390 | 11.67° C | 62% | 994 hPa | 0 mm | - | - | - |
| 1777809190 | 10.56° C | 65% | 994 hPa | 0 mm | - | - | - |
| 1777807990 | 11.67° C | 68% | 994 hPa | 0 mm | - | - | - |
| 1777806790 | 10° C | 75% | 993 hPa | 0 mm | - | - | - |
| 1777805590 | 10° C | 76% | 994 hPa | 0 mm | - | - | - |
| 1777804390 | 11.67° C | 62% | 994 hPa | 0 mm | - | - | - |
| 1777803190 | 10° C | 72% | 994 hPa | 0 mm | - | - | - |
| 1777801991 | 10° C | 70% | 994 hPa | 0 mm | - | - | - |
| 1777800791 | 13.89° C | 59% | 994 hPa | 0 mm | - | - | - |
| 1777799589 | 10.56° C | 64% | 995 hPa | 0 mm | - | - | - |
| 1777798390 | 10.56° C | 64% | 994 hPa | 0 mm | - | - | - |
| 1777797190 | 11.67° C | 64% | 994 hPa | 0 mm | - | - | - |
| 1777795991 | 10° C | 67% | 994 hPa | 0 mm | - | - | - |
| 1777794790 | 10.56° C | 67% | 994 hPa | 0 mm | - | - | - |
| 1777793591 | 10° C | 74% | 994 hPa | 0 mm | - | - | - |
| 1777792390 | 10° C | 76% | 994 hPa | 0 mm | - | - | - |
| 1777791190 | 10° C | 77% | 994 hPa | 0 mm | - | - | - |
| 1777789991 | 8.89° C | 82% | 995 hPa | 0 mm | - | - | - |
| 1777788790 | 7.78° C | 84% | 994 hPa | 0 mm | - | - | - |
* Rain latest hour (hover to see other rain measurements)
** Current wind speed in m/s (hover to see current wind gust speed)